createdAt,value
2018-12-26T03:31:58.773Z,26.93
2018-12-26T04:23:27.121Z,21.47
2018-12-26T05:13:30.507Z,20.87
2018-12-26T05:38:03.182Z,20.10
2018-12-26T05:48:34.887Z,22.83
2018-12-26T06:10:17.115Z,21.50
2018-12-26T06:34:21.477Z,20.97
2018-12-26T07:06:23.168Z,22.57
2018-12-26T07:17:30.274Z,23.00
2018-12-26T07:34:27.407Z,20.07
2018-12-26T08:31:20.785Z,22.27
2018-12-26T09:38:25.946Z,32.43
2018-12-26T09:41:39.330Z,49.10
2018-12-26T09:48:01.859Z,27.90
2018-12-26T09:50:31.822Z,34.13
2018-12-26T09:53:06.286Z,21.37
2018-12-26T09:55:35.591Z,29.93
2018-12-26T09:58:04.875Z,23.20
2018-12-26T10:00:34.360Z,25.37
2018-12-26T10:06:01.567Z,22.13
2018-12-26T10:08:52.815Z,19.53
2018-12-26T10:12:02.039Z,20.03
2018-12-26T10:17:55.060Z,19.20
2018-12-26T10:24:05.239Z,18.97
2018-12-26T10:27:11.072Z,20.73
2018-12-26T10:36:03.415Z,17.17
2018-12-26T10:37:43.468Z,17.63
2018-12-26T10:41:53.802Z,13.87
2018-12-26T10:44:22.885Z,12.67
2018-12-26T10:46:51.689Z,13.90
2018-12-26T10:49:20.535Z,12.27
2018-12-26T10:51:49.368Z,11.07
2018-12-26T10:54:18.253Z,10.60
2018-12-26T10:56:47.175Z,10.23
2018-12-26T10:59:16.138Z,13.37
2018-12-26T11:01:45.097Z,12.13
2018-12-26T11:04:13.986Z,11.97
2018-12-26T11:06:42.786Z,13.47
2018-12-26T11:09:11.627Z,12.80
2018-12-26T11:11:40.644Z,11.63
2018-12-26T11:14:09.551Z,12.70
2018-12-26T11:16:38.602Z,11.20
2018-12-26T11:19:07.486Z,12.33
2018-12-26T11:21:36.437Z,13.13
2018-12-26T11:24:05.335Z,11.50
2018-12-26T11:26:34.239Z,13.17
2018-12-26T11:29:03.247Z,10.83
2018-12-26T11:31:32.095Z,10.73
2018-12-26T11:34:01.070Z,12.60
2018-12-26T11:36:30.110Z,13.47
2018-12-26T11:38:59.167Z,11.13
2018-12-26T11:41:28.082Z,10.87
2018-12-26T11:43:57.023Z,11.77
2018-12-26T11:46:25.913Z,12.23
2018-12-26T11:48:54.935Z,12.23
2018-12-26T11:51:23.981Z,10.63
2018-12-26T11:53:52.963Z,11.13
2018-12-26T11:56:21.965Z,10.57
2018-12-26T11:58:50.896Z,12.17
2018-12-26T12:01:19.767Z,11.40
2018-12-26T12:03:48.803Z,12.77
2018-12-26T12:06:17.727Z,10.63
2018-12-26T12:08:46.746Z,10.80
2018-12-26T12:11:15.581Z,15.05
2018-12-26T12:13:44.582Z,11.53
2018-12-26T12:16:13.592Z,11.90
2018-12-26T12:18:42.506Z,11.30
2018-12-26T12:21:11.774Z,12.63
2018-12-26T12:23:40.647Z,12.63
2018-12-26T12:26:09.651Z,9.73
2018-12-26T12:28:38.847Z,12.60
2018-12-26T12:31:07.826Z,11.97
2018-12-26T12:33:36.896Z,10.63
2018-12-26T12:36:05.898Z,11.33
2018-12-26T12:38:34.921Z,14.07
2018-12-26T12:41:03.819Z,10.37
2018-12-26T12:43:32.767Z,9.83
2018-12-26T12:46:01.722Z,12.70
2018-12-26T12:48:30.996Z,9.83
2018-12-26T12:51:00.020Z,20.07
2018-12-26T12:53:29.215Z,10.83
2018-12-26T12:55:58.495Z,9.10
2018-12-26T12:58:27.528Z,10.00
2018-12-26T13:00:56.561Z,11.27
2018-12-26T13:03:25.859Z,10.77
2018-12-26T13:05:54.813Z,11.30
2018-12-26T13:08:23.733Z,9.80
2018-12-26T13:10:52.666Z,10.90
2018-12-26T13:13:21.707Z,11.40
2018-12-26T13:15:50.624Z,11.10
2018-12-26T13:18:19.446Z,10.77
2018-12-26T13:20:48.386Z,9.23
2018-12-26T13:23:17.318Z,10.07
2018-12-26T13:25:46.110Z,10.27
2018-12-26T13:28:14.979Z,10.73
2018-12-26T13:30:44.055Z,9.87
2018-12-26T13:33:12.943Z,14.07
2018-12-26T13:35:41.726Z,12.37
2018-12-26T13:38:10.770Z,11.10
2018-12-26T13:40:39.789Z,10.17
2018-12-26T13:43:08.717Z,10.97
2018-12-26T13:45:37.594Z,14.23
2018-12-26T13:48:06.544Z,11.47
2018-12-26T13:50:35.530Z,11.20
2018-12-26T13:53:04.574Z,11.77
2018-12-26T13:55:33.462Z,14.03
2018-12-26T13:58:02.306Z,10.10
2018-12-26T14:00:31.302Z,11.00
2018-12-26T14:03:00.207Z,10.70
2018-12-26T14:05:29.108Z,13.57
2018-12-26T14:07:58.022Z,10.20
2018-12-26T14:10:26.935Z,10.87
2018-12-26T14:12:55.793Z,12.57
2018-12-26T14:15:24.616Z,10.33
2018-12-26T14:17:53.545Z,12.87
2018-12-26T14:20:22.385Z,12.20
2018-12-26T14:22:51.525Z,11.70
2018-12-26T14:25:20.354Z,11.13
2018-12-26T14:27:49.263Z,15.70
2018-12-26T14:30:18.187Z,12.37
2018-12-26T14:32:47.017Z,19.17
2018-12-26T14:35:16.079Z,21.73
2018-12-26T14:37:45.014Z,28.53
2018-12-26T14:40:13.933Z,17.67
2018-12-26T14:42:42.826Z,16.57
2018-12-26T14:45:11.756Z,18.87
2018-12-26T14:47:40.899Z,17.47
2018-12-26T14:50:09.890Z,13.83
2018-12-26T14:52:38.920Z,15.27
2018-12-26T14:55:07.954Z,14.13
2018-12-26T14:57:36.945Z,13.67
2018-12-26T15:00:06.199Z,12.77
2018-12-26T15:02:35.078Z,10.53
2018-12-26T15:05:04.404Z,14.27
2018-12-26T15:07:33.565Z,12.10
2018-12-26T15:10:02.558Z,11.33
2018-12-26T15:12:31.456Z,16.07
2018-12-26T15:15:00.310Z,20.07
2018-12-26T15:17:29.197Z,17.90
2018-12-26T15:19:58.102Z,19.67
2018-12-26T15:22:26.973Z,18.27
2018-12-26T15:24:55.815Z,17.33
2018-12-26T15:27:24.697Z,21.77
2018-12-26T15:29:53.731Z,23.37
2018-12-26T15:32:22.684Z,40.40
2018-12-26T15:34:51.525Z,27.70
2018-12-26T15:37:20.586Z,27.70
2018-12-26T15:39:49.422Z,21.87
2018-12-26T15:42:18.455Z,33.33
2018-12-26T15:44:47.777Z,34.10
2018-12-26T15:47:16.724Z,28.40
2018-12-26T15:49:45.642Z,28.87
2018-12-26T15:52:14.730Z,22.60
2018-12-26T15:54:43.728Z,20.13
2018-12-26T15:57:12.513Z,33.10
2018-12-26T15:59:41.479Z,29.40
2018-12-26T16:02:10.837Z,35.63
2018-12-26T16:04:39.761Z,37.30
2018-12-26T16:07:11.581Z,26.03
2018-12-26T16:09:40.688Z,24.13
2018-12-26T16:12:09.849Z,14.77
2018-12-26T16:14:38.786Z,15.30
2018-12-26T16:17:07.729Z,21.63
2018-12-26T16:19:36.908Z,21.33
2018-12-26T16:22:07.779Z,16.47
2018-12-26T16:24:36.890Z,18.67
2018-12-26T16:27:05.867Z,18.53
2018-12-26T16:29:34.835Z,20.07
2018-12-26T16:32:03.730Z,20.37
2018-12-26T16:34:32.808Z,26.20
2018-12-26T16:37:01.626Z,23.97
2018-12-26T16:39:35.698Z,21.33
2018-12-26T16:42:01.231Z,20.57
2018-12-26T16:44:30.210Z,21.20
2018-12-26T16:46:59.210Z,20.83
2018-12-26T16:49:28.113Z,21.03
2018-12-26T16:51:56.976Z,20.53
2018-12-26T16:54:26.329Z,21.47
2018-12-26T16:56:55.426Z,27.43
2018-12-26T16:59:24.286Z,18.77
2018-12-26T17:01:53.453Z,16.30
2018-12-26T17:04:22.430Z,16.57
2018-12-26T17:06:51.546Z,16.63
2018-12-26T17:09:20.444Z,18.37
2018-12-26T17:11:49.978Z,13.03
2018-12-26T17:14:18.833Z,12.77
2018-12-26T17:16:47.699Z,13.60
2018-12-26T17:19:16.983Z,15.10
2018-12-26T17:21:46.087Z,14.37
2018-12-26T17:24:16.704Z,16.50
2018-12-26T17:26:45.482Z,15.67
2018-12-26T17:29:14.360Z,20.67
2018-12-26T17:31:43.202Z,15.83
2018-12-26T17:34:22.471Z,15.77
2018-12-26T17:36:51.311Z,16.63
2018-12-26T17:39:20.349Z,18.60
2018-12-26T17:41:50.881Z,15.33
2018-12-26T17:44:20.363Z,17.53
2018-12-26T17:46:49.997Z,17.57
2018-12-26T17:49:19.478Z,17.77
2018-12-26T17:51:48.954Z,16.00
2018-12-26T17:54:38.561Z,18.07
2018-12-26T17:57:14.871Z,20.03
2018-12-26T17:59:56.516Z,16.23
2018-12-26T18:02:50.292Z,22.30
2018-12-26T18:05:20.752Z,19.63
2018-12-26T18:07:55.337Z,20.63
2018-12-26T18:10:35.076Z,28.97
2018-12-26T18:13:04.478Z,23.17
2018-12-26T18:15:33.569Z,23.03
2018-12-26T18:18:02.504Z,26.27
2018-12-26T18:20:31.386Z,22.00
2018-12-26T18:23:00.402Z,24.27
2018-12-26T18:25:29.562Z,30.97
2018-12-26T18:27:58.835Z,25.27
2018-12-26T18:30:27.658Z,35.80
2018-12-26T18:32:56.597Z,34.37
2018-12-26T18:35:25.519Z,54.13
2018-12-26T18:37:54.427Z,39.60
2018-12-26T18:40:23.428Z,40.97
2018-12-26T18:42:52.365Z,36.23
2018-12-26T18:45:21.334Z,36.27
2018-12-26T18:47:50.497Z,23.43
2018-12-26T18:50:19.609Z,26.37
2018-12-26T18:52:48.664Z,29.70
2018-12-26T18:55:17.666Z,35.00
2018-12-26T18:57:46.484Z,33.10
2018-12-26T19:00:15.691Z,36.23
2018-12-26T19:02:44.633Z,32.27
2018-12-26T19:05:13.740Z,37.70
2018-12-26T19:07:42.687Z,39.50
2018-12-26T19:10:11.522Z,49.20
2018-12-26T19:12:40.397Z,41.83
2018-12-26T19:15:09.749Z,48.50
2018-12-26T19:17:38.659Z,40.70
2018-12-26T19:20:09.490Z,52.80
2018-12-26T19:22:38.429Z,42.57
2018-12-26T19:25:07.458Z,27.00
2018-12-26T19:27:36.327Z,25.93
2018-12-26T19:30:07.233Z,30.73
2018-12-26T19:32:36.284Z,33.30
2018-12-26T19:35:05.278Z,28.20
2018-12-26T19:37:34.310Z,27.43
2018-12-26T19:40:03.394Z,24.30
2018-12-26T19:42:37.320Z,21.43
2018-12-26T19:45:03.238Z,22.17
2018-12-26T19:47:32.215Z,24.60
2018-12-26T19:50:05.134Z,24.93
2018-12-26T19:52:31.833Z,31.60
2018-12-26T19:55:01.032Z,28.93
2018-12-26T19:57:29.924Z,37.13
2018-12-26T19:59:58.867Z,40.13
2018-12-26T20:02:27.845Z,26.93
2018-12-26T20:04:56.688Z,25.27
2018-12-26T20:07:25.590Z,21.47
2018-12-26T20:09:54.580Z,26.63
2018-12-26T20:12:23.652Z,22.70
2018-12-26T20:14:52.593Z,21.77
2018-12-26T20:17:21.502Z,19.97
2018-12-26T20:19:50.486Z,21.87
2018-12-26T20:22:19.497Z,30.17
2018-12-26T20:24:48.359Z,37.23
2018-12-26T20:27:17.313Z,31.57
2018-12-26T20:29:46.247Z,25.90
2018-12-26T20:32:15.235Z,24.10
2018-12-26T20:34:44.114Z,27.23
2018-12-26T20:37:13.066Z,29.30
2018-12-26T20:39:42.111Z,26.70
2018-12-26T20:42:10.991Z,26.80
2018-12-26T20:44:39.931Z,34.03
2018-12-26T20:47:08.791Z,32.10
2018-12-26T20:49:37.753Z,26.00
2018-12-26T20:52:06.686Z,26.93
2018-12-26T20:54:35.766Z,25.57
2018-12-26T20:57:04.715Z,28.13
2018-12-26T20:59:33.659Z,27.97
2018-12-26T21:02:05.802Z,26.30
2018-12-26T21:04:33.483Z,25.67
2018-12-26T21:07:02.322Z,23.03
2018-12-26T21:09:31.202Z,24.77
2018-12-26T21:12:00.067Z,18.60
2018-12-26T21:14:29.077Z,22.27
2018-12-26T21:16:57.972Z,32.70
2018-12-26T21:19:27.125Z,28.47
2018-12-26T21:21:55.941Z,26.17
2018-12-26T21:24:24.986Z,28.27
2018-12-26T21:26:54.298Z,30.03
2018-12-26T21:29:24.418Z,33.00
2018-12-26T21:31:53.477Z,27.63
2018-12-26T21:34:22.297Z,27.87
2018-12-26T21:36:51.305Z,28.83
2018-12-26T21:39:20.244Z,22.17
2018-12-26T21:41:49.260Z,25.63
2018-12-26T21:44:18.365Z,24.03
2018-12-26T21:46:47.426Z,26.67
2018-12-26T21:49:16.320Z,32.60
2018-12-26T21:51:45.552Z,21.90
2018-12-26T21:54:14.703Z,23.43
2018-12-26T21:56:43.724Z,18.27
2018-12-26T21:59:12.963Z,20.17
2018-12-26T22:01:41.895Z,17.40
2018-12-26T22:04:10.749Z,35.60
2018-12-26T22:06:39.699Z,30.03
2018-12-26T22:09:08.606Z,22.07
2018-12-26T22:11:37.848Z,17.80
2018-12-26T22:14:06.883Z,19.47
2018-12-26T22:16:35.762Z,19.27
2018-12-26T22:19:04.663Z,19.07
2018-12-26T22:21:33.625Z,21.13
2018-12-26T22:24:02.604Z,18.00
2018-12-26T22:26:31.446Z,18.83
2018-12-26T22:29:00.667Z,19.10
2018-12-26T22:31:29.633Z,18.17
2018-12-26T22:33:58.481Z,17.77
2018-12-26T22:36:27.317Z,18.37
2018-12-26T22:38:56.277Z,18.80
2018-12-26T22:41:25.339Z,14.90
2018-12-26T22:43:54.187Z,17.63
2018-12-26T22:46:23.088Z,19.53
2018-12-26T22:48:52.206Z,15.90
2018-12-26T22:51:21.078Z,17.77
2018-12-26T22:53:50.126Z,18.67
2018-12-26T22:56:18.965Z,16.23
2018-12-26T22:58:47.870Z,17.67
2018-12-26T23:01:16.917Z,17.10
2018-12-26T23:03:45.853Z,16.73
2018-12-26T23:06:14.769Z,16.13
2018-12-26T23:08:43.726Z,17.30
2018-12-26T23:11:12.569Z,20.43
2018-12-26T23:13:41.510Z,17.60
2018-12-26T23:16:10.837Z,19.57
2018-12-26T23:18:39.641Z,16.93
2018-12-26T23:21:08.473Z,17.27
2018-12-26T23:23:37.337Z,17.63
2018-12-26T23:26:07.216Z,15.20
2018-12-26T23:28:36.215Z,14.90
2018-12-26T23:31:05.330Z,17.70
2018-12-26T23:33:34.299Z,18.83
2018-12-26T23:36:03.246Z,15.97
2018-12-26T23:38:32.136Z,18.60
2018-12-26T23:41:01.354Z,18.70
2018-12-26T23:43:30.199Z,20.87
2018-12-26T23:45:59.317Z,18.00
2018-12-26T23:48:28.171Z,18.63
2018-12-26T23:50:57.021Z,19.43
2018-12-26T23:53:25.850Z,17.10
2018-12-26T23:55:54.705Z,18.03
2018-12-26T23:58:24.070Z,16.93
